KHYR/HYR METAR and TAF weather

Enter ICAO airport designator
Station Type Date Time Source
KHYR METAR 2020/11/28 19:53 UTC NOAA

KHYR 281953Z AUTO 24007KT 220V280 10SM CLR 09/M03 A2983 RMK AO2 SLP114 T00891033


Station Type Date Time Source
KHYR Decoded METAR 2020/11/28 19:53 UTC NOAA

HAYWARD MUNICIPAL AIRPORT, WI, United States (KHYR) 46-01N 91-27W 370M
Nov 28, 2020 - 02:53 PM EST / 2020.11.28 1953 UTC
Wind: from the WSW (240 degrees) at 8 MPH (7 KT) (direction variable):0
Visibility: 10 mile(s):0
Sky conditions: clear
Temperature: 48.0 F (8.9 C)
Dew Point: 26.1 F (-3.3 C)
Relative Humidity: 42%
Pressure (altimeter): 29.83 in. Hg (1010 hPa)
ob: KHYR 281953Z AUTO 24007KT 220V280 10SM CLR 09/M03 A2983 RMK AO2 SLP114 T00891033
cycle: 20

Station Type Date Time Source
KHYR TAF 2020/11/28 18:40 UTC NOAA

TAF KHYR 281738Z 2818/2918 21008KT P6SM SKC
FM290900 26006KT P6SM SCT025 SCT150
FM291400 30010G18KT P6SM BKN025 OVC100
FM291700 30014G22KT P6SM VCSH OVC015

Example: see airport list